Impacts METAR Board
IDs:

KPHX - Phoenix/Sky Harbor, AZ, US

Updated at: 0200 UTC 23 Sep 2018
Potential Impact None Slight Moderate High
Time 22/14Z 22/15Z 22/16Z 22/17Z 22/18Z 22/19Z 22/20Z 22/21Z 22/22Z 22/23Z 23/00Z 23/01Z 23/02Z
Temp82 84 88 93 94 98 98 100 98 101 100 100 98
Dewpt58 56 58 58 58 56 56 54 53 54 52 48 44
Altim29.94 29.96 29.96 29.96 29.95 29.92 29.89 29.86 29.83 29.80 29.79 29.79 29.79
VIS10 10 10 10 10 10 10 10 10 10 10 10 10
CIG130 130 140 -- -- -- -- -- -- -- -- -- --
CoverBKNBKNBKNFEWFEWFEWFEWFEWSCTSCTSCTSCTFEW
FltCatVFRVFRVFRVFRVFRVFRVFRVFRVFRVFRVFRVFRVFR
WX--------------------------
WDir140110901201108080001900150170
WSpd4 6 7 9 5 8 5 4 4 6 0 5 6
WGst-- -- -- -- -- -- -- -- -- -- -- -- --
Raw hourly METARs
KPHX 221351Z 14004KT 10SM BKN130 28/14 A2994 RMK AO2 SLP119 T02780144
KPHX 221451Z 11006KT 10SM BKN130 29/13 A2996 RMK AO2 SLP123 T02890133 51016
KPHX 221551Z 09007KT 10SM BKN140 BKN180 31/14 A2996 RMK AO2 SLP125 T03110144
KPHX 221651Z 12009KT 10SM FEW090 FEW140 34/14 A2996 RMK AO2 SLP124 T03390144
KPHX 221751Z 11005KT 10SM FEW090 34/14 A2995 RMK AO2 SLP119 T03440144 10350 20278 58003
KPHX 221851Z 08008KT 10SM FEW100 37/13 A2992 RMK AO2 SLP110 T03670133
KPHX 221951Z 08005KT 10SM FEW100 37/13 A2989 RMK AO2 SLP100 T03670133
KPHX 222051Z VRB04KT 10SM FEW100 38/12 A2986 RMK AO2 SLP089 T03780122 58029
KPHX 222151Z VRB04KT 10SM SCT100 37/12 A2983 RMK AO2 SLP079 T03670117
KPHX 222251Z 19006KT 10SM SCT100 SCT150 38/12 A2980 RMK AO2 SLP070 T03830122
KPHX 222351Z 00000KT 10SM SCT110 SCT170 38/11 A2979 RMK AO2 SLP067 T03780111 10389 20344 56021
KPHX 230051Z 15005KT 10SM FEW120 FEW170 SCT250 38/09 A2979 RMK AO2 SLP065 T03780089
KPHX 230151Z 17006KT 10SM FEW130 FEW250 37/07 A2979 RMK AO2 SLP067 T03670067



Page loaded:  02:19 UTC  |   07:19 PM Pacific  |   08:19 PM Mountain  |   09:19 PM Central  |   10:19 PM Eastern

 

ADVISORIES

FORECASTS

FORECASTS

OBSERVATIONS

USER TOOLS

ABOUT US